sensor_id;sensor_type;location;lat;lon;timestamp;pressure;altitude;pressure_sealevel;temperature;humidity
75553;BME280;64136;53.118;17.996;2023-03-16T00:01:40;101231.16;;;0.05;76.59
75553;BME280;64136;53.118;17.996;2023-03-16T00:04:06;101226.21;;;0.10;75.64
75553;BME280;64136;53.118;17.996;2023-03-16T00:06:33;101232.64;;;0.11;75.13
75553;BME280;64136;53.118;17.996;2023-03-16T00:09:02;101234.04;;;0.11;75.04
75553;BME280;64136;53.118;17.996;2023-03-16T00:11:29;101232.13;;;0.11;74.81
75553;BME280;64136;53.118;17.996;2023-03-16T00:13:56;101230.77;;;0.08;74.70
75553;BME280;64136;53.118;17.996;2023-03-16T00:16:23;101230.98;;;0.05;74.58
75553;BME280;64136;53.118;17.996;2023-03-16T00:18:50;101235.39;;;-0.00;75.71
75553;BME280;64136;53.118;17.996;2023-03-16T00:21:16;101239.02;;;-0.14;76.65
75553;BME280;64136;53.118;17.996;2023-03-16T00:23:42;101237.38;;;-0.23;77.54
75553;BME280;64136;53.118;17.996;2023-03-16T00:26:09;101245.61;;;-0.29;77.86
75553;BME280;64136;53.118;17.996;2023-03-16T00:28:38;101248.32;;;-0.38;78.23
75553;BME280;64136;53.118;17.996;2023-03-16T00:31:07;101248.38;;;-0.45;78.79
75553;BME280;64136;53.118;17.996;2023-03-16T00:33:34;101244.39;;;-0.48;78.79
75553;BME280;64136;53.118;17.996;2023-03-16T00:36:03;101245.62;;;-0.49;78.82
75553;BME280;64136;53.118;17.996;2023-03-16T00:38:32;101247.25;;;-0.55;79.16
75553;BME280;64136;53.118;17.996;2023-03-16T00:43:31;101249.23;;;-0.63;79.69
75553;BME280;64136;53.118;17.996;2023-03-16T00:46:10;101255.52;;;-0.64;79.52
75553;BME280;64136;53.118;17.996;2023-03-16T00:48:40;101256.55;;;-0.63;79.59
75553;BME280;64136;53.118;17.996;2023-03-16T00:51:10;101254.66;;;-0.68;79.71
75553;BME280;64136;53.118;17.996;2023-03-16T00:53:39;101259.55;;;-0.72;79.90
75553;BME280;64136;53.118;17.996;2023-03-16T00:56:06;101259.05;;;-0.74;80.05
75553;BME280;64136;53.118;17.996;2023-03-16T00:58:36;101257.31;;;-0.74;79.94
75553;BME280;64136;53.118;17.996;2023-03-16T01:01:09;101254.50;;;-0.71;79.53
75553;BME280;64136;53.118;17.996;2023-03-16T01:03:36;101258.14;;;-0.69;79.43
75553;BME280;64136;53.118;17.996;2023-03-16T01:06:11;101264.05;;;-0.69;79.21
75553;BME280;64136;53.118;17.996;2023-03-16T01:08:39;101265.45;;;-0.70;79.31
75553;BME280;64136;53.118;17.996;2023-03-16T01:11:49;101265.98;;;-0.70;79.61
75553;BME280;64136;53.118;17.996;2023-03-16T01:14:19;101262.50;;;-0.71;79.79
75553;BME280;64136;53.118;17.996;2023-03-16T01:16:45;101266.66;;;-0.69;80.19
75553;BME280;64136;53.118;17.996;2023-03-16T01:19:11;101262.83;;;-0.68;80.05
75553;BME280;64136;53.118;17.996;2023-03-16T01:21:39;101266.84;;;-0.68;80.08
75553;BME280;64136;53.118;17.996;2023-03-16T01:24:05;101267.71;;;-0.71;80.28
75553;BME280;64136;53.118;17.996;2023-03-16T01:26:32;101275.05;;;-0.75;80.49
75553;BME280;64136;53.118;17.996;2023-03-16T01:28:58;101277.34;;;-0.76;80.64
75553;BME280;64136;53.118;17.996;2023-03-16T01:31:25;101273.53;;;-0.79;80.80
75553;BME280;64136;53.118;17.996;2023-03-16T01:33:51;101271.29;;;-0.81;81.11
75553;BME280;64136;53.118;17.996;2023-03-16T01:36:20;101275.29;;;-0.81;81.12
75553;BME280;64136;53.118;17.996;2023-03-16T01:38:52;101276.01;;;-0.83;81.31
75553;BME280;64136;53.118;17.996;2023-03-16T01:41:19;101279.31;;;-0.83;81.17
75553;BME280;64136;53.118;17.996;2023-03-16T01:43:45;101277.59;;;-0.86;81.40
75553;BME280;64136;53.118;17.996;2023-03-16T01:46:21;101281.79;;;-0.91;81.48
75553;BME280;64136;53.118;17.996;2023-03-16T01:49:02;101277.98;;;-0.96;82.00
75553;BME280;64136;53.118;17.996;2023-03-16T01:51:35;101282.15;;;-0.95;81.88
75553;BME280;64136;53.118;17.996;2023-03-16T01:54:10;101286.69;;;-0.97;81.93
75553;BME280;64136;53.118;17.996;2023-03-16T01:56:46;101286.19;;;-0.99;81.85
75553;BME280;64136;53.118;17.996;2023-03-16T01:59:16;101288.48;;;-1.03;82.12
75553;BME280;64136;53.118;17.996;2023-03-16T02:01:45;101286.23;;;-1.05;82.26
75553;BME280;64136;53.118;17.996;2023-03-16T02:04:22;101285.17;;;-1.03;81.99
75553;BME280;64136;53.118;17.996;2023-03-16T02:06:54;101288.83;;;-1.03;82.03
75553;BME280;64136;53.118;17.996;2023-03-16T02:09:23;101290.57;;;-1.04;82.25
75553;BME280;64136;53.118;17.996;2023-03-16T02:12:09;101290.75;;;-1.05;82.42
75553;BME280;64136;53.118;17.996;2023-03-16T02:14:45;101294.03;;;-1.02;82.14
75553;BME280;64136;53.118;17.996;2023-03-16T02:17:27;101296.63;;;-1.01;82.23
75553;BME280;64136;53.118;17.996;2023-03-16T02:20:16;101294.03;;;-1.02;82.27
75553;BME280;64136;53.118;17.996;2023-03-16T02:22:49;101295.27;;;-1.06;82.49
75553;BME280;64136;53.118;17.996;2023-03-16T02:25:22;101299.98;;;-1.08;82.68
75553;BME280;64136;53.118;17.996;2023-03-16T02:28:03;101300.86;;;-1.09;82.74
75553;BME280;64136;53.118;17.996;2023-03-16T02:30:34;101303.30;;;-1.08;82.66
75553;BME280;64136;53.118;17.996;2023-03-16T02:33:01;101303.67;;;-1.12;82.85
75553;BME280;64136;53.118;17.996;2023-03-16T02:35:44;101303.66;;;-1.14;82.85
75553;BME280;64136;53.118;17.996;2023-03-16T02:38:10;101307.98;;;-1.14;82.86
75553;BME280;64136;53.118;17.996;2023-03-16T02:40:41;101303.48;;;-1.14;82.91
75553;BME280;64136;53.118;17.996;2023-03-16T02:43:11;101303.31;;;-1.13;82.89
75553;BME280;64136;53.118;17.996;2023-03-16T02:45:51;101303.32;;;-1.17;83.08
75553;BME280;64136;53.118;17.996;2023-03-16T02:48:23;101303.02;;;-1.22;83.25
75553;BME280;64136;53.118;17.996;2023-03-16T02:50:52;101305.27;;;-1.21;83.15
75553;BME280;64136;53.118;17.996;2023-03-16T02:53:20;101305.61;;;-1.20;82.92
75553;BME280;64136;53.118;17.996;2023-03-16T02:55:46;101303.34;;;-1.22;82.94
75553;BME280;64136;53.118;17.996;2023-03-16T02:58:13;101304.23;;;-1.25;82.99
75553;BME280;64136;53.118;17.996;2023-03-16T03:00:39;101303.21;;;-1.27;82.88
75553;BME280;64136;53.118;17.996;2023-03-16T03:03:05;101302.83;;;-1.22;82.84
75553;BME280;64136;53.118;17.996;2023-03-16T03:05:37;101302.98;;;-1.17;82.80
75553;BME280;64136;53.118;17.996;2023-03-16T03:08:04;101307.13;;;-1.16;82.77
75553;BME280;64136;53.118;17.996;2023-03-16T03:10:31;101307.48;;;-1.15;82.68
75553;BME280;64136;53.118;17.996;2023-03-16T03:12:57;101303.35;;;-1.22;83.01
75553;BME280;64136;53.118;17.996;2023-03-16T03:15:24;101303.91;;;-1.26;83.17
75553;BME280;64136;53.118;17.996;2023-03-16T03:17:57;101302.16;;;-1.26;83.17
75553;BME280;64136;53.118;17.996;2023-03-16T03:20:23;101304.95;;;-1.26;83.32
75553;BME280;64136;53.118;17.996;2023-03-16T03:22:50;101303.02;;;-1.26;83.06
75553;BME280;64136;53.118;17.996;2023-03-16T03:25:19;101307.73;;;-1.27;83.39
75553;BME280;64136;53.118;17.996;2023-03-16T03:27:46;101307.23;;;-1.30;83.75
75553;BME280;64136;53.118;17.996;2023-03-16T03:30:17;101306.36;;;-1.31;83.78
75553;BME280;64136;53.118;17.996;2023-03-16T03:32:44;101304.77;;;-1.27;83.60
75553;BME280;64136;53.118;17.996;2023-03-16T03:35:12;101309.46;;;-1.26;83.63
75553;BME280;64136;53.118;17.996;2023-03-16T03:37:39;101313.81;;;-1.26;83.43
75553;BME280;64136;53.118;17.996;2023-03-16T03:40:07;101315.39;;;-1.29;83.30
75553;BME280;64136;53.118;17.996;2023-03-16T03:42:35;101315.59;;;-1.32;83.44
75553;BME280;64136;53.118;17.996;2023-03-16T03:45:03;101312.30;;;-1.34;83.44
75553;BME280;64136;53.118;17.996;2023-03-16T03:47:31;101310.73;;;-1.36;83.73
75553;BME280;64136;53.118;17.996;2023-03-16T03:49:58;101314.19;;;-1.37;83.77
75553;BME280;64136;53.118;17.996;2023-03-16T03:52:24;101314.36;;;-1.38;83.93
75553;BME280;64136;53.118;17.996;2023-03-16T03:54:50;101315.42;;;-1.34;83.85
75553;BME280;64136;53.118;17.996;2023-03-16T03:57:17;101314.53;;;-1.31;83.64
75553;BME280;64136;53.118;17.996;2023-03-16T03:59:42;101314.00;;;-1.30;83.66
75553;BME280;64136;53.118;17.996;2023-03-16T04:02:20;101318.70;;;-1.31;83.66
75553;BME280;64136;53.118;17.996;2023-03-16T04:04:49;101312.80;;;-1.31;83.74
75553;BME280;64136;53.118;17.996;2023-03-16T04:07:15;101308.78;;;-1.28;83.65
75553;BME280;64136;53.118;17.996;2023-03-16T04:09:43;101314.82;;;-1.22;83.22
75553;BME280;64136;53.118;17.996;2023-03-16T04:12:15;101320.38;;;-1.21;83.36
75553;BME280;64136;53.118;17.996;2023-03-16T04:14:41;101317.96;;;-1.24;83.34
75553;BME280;64136;53.118;17.996;2023-03-16T04:17:08;101325.63;;;-1.25;83.55
75553;BME280;64136;53.118;17.996;2023-03-16T04:19:35;101325.80;;;-1.27;83.82
75553;BME280;64136;53.118;17.996;2023-03-16T04:22:01;101327.53;;;-1.25;83.48
75553;BME280;64136;53.118;17.996;2023-03-16T04:24:27;101326.31;;;-1.25;83.75
75553;BME280;64136;53.118;17.996;2023-03-16T04:26:53;101331.36;;;-1.25;83.75
75553;BME280;64136;53.118;17.996;2023-03-16T04:29:20;101331.36;;;-1.27;83.87
75553;BME280;64136;53.118;17.996;2023-03-16T04:31:46;101333.45;;;-1.27;83.93
75553;BME280;64136;53.118;17.996;2023-03-16T04:34:12;101336.74;;;-1.27;83.87
75553;BME280;64136;53.118;17.996;2023-03-16T04:36:38;101336.75;;;-1.27;83.85
75553;BME280;64136;53.118;17.996;2023-03-16T04:39:05;101334.15;;;-1.28;83.87
75553;BME280;64136;53.118;17.996;2023-03-16T04:41:31;101332.26;;;-1.31;83.90
75553;BME280;64136;53.118;17.996;2023-03-16T04:44:04;101328.60;;;-1.31;84.23
75553;BME280;64136;53.118;17.996;2023-03-16T04:46:30;101329.96;;;-1.26;84.09
75553;BME280;64136;53.118;17.996;2023-03-16T04:48:57;101330.48;;;-1.25;84.03
75553;BME280;64136;53.118;17.996;2023-03-16T04:51:24;101331.02;;;-1.26;84.12
75553;BME280;64136;53.118;17.996;2023-03-16T04:54:02;101328.94;;;-1.27;84.28
75553;BME280;64136;53.118;17.996;2023-03-16T04:59:02;101328.73;;;-1.25;84.18
75553;BME280;64136;53.118;17.996;2023-03-16T05:01:39;101332.73;;;-1.23;83.91
75553;BME280;64136;53.118;17.996;2023-03-16T05:06:36;101333.61;;;-1.26;83.93
75553;BME280;64136;53.118;17.996;2023-03-16T05:09:02;101335.52;;;-1.24;83.77
75553;BME280;64136;53.118;17.996;2023-03-16T05:11:34;101335.34;;;-1.24;83.92
75553;BME280;64136;53.118;17.996;2023-03-16T05:14:01;101337.27;;;-1.25;83.97
75553;BME280;64136;53.118;17.996;2023-03-16T05:16:28;101341.08;;;-1.24;84.01
75553;BME280;64136;53.118;17.996;2023-03-16T05:18:59;101337.59;;;-1.23;83.92
75553;BME280;64136;53.118;17.996;2023-03-16T05:21:26;101341.41;;;-1.21;83.87
75553;BME280;64136;53.118;17.996;2023-03-16T05:23:59;101339.52;;;-1.22;83.77
75553;BME280;64136;53.118;17.996;2023-03-16T05:26:25;101339.85;;;-1.23;83.61
75553;BME280;64136;53.118;17.996;2023-03-16T05:28:51;101339.16;;;-1.22;83.70
75553;BME280;64136;53.118;17.996;2023-03-16T05:31:21;101340.52;;;-1.17;83.65
75553;BME280;64136;53.118;17.996;2023-03-16T05:33:51;101336.69;;;-1.12;83.48
75553;BME280;64136;53.118;17.996;2023-03-16T05:36:19;101342.60;;;-1.11;83.54
75553;BME280;64136;53.118;17.996;2023-03-16T05:38:47;101348.66;;;-1.07;83.25
75553;BME280;64136;53.118;17.996;2023-03-16T05:41:19;101346.20;;;-1.05;83.39
75553;BME280;64136;53.118;17.996;2023-03-16T05:43:53;101345.30;;;-0.99;83.26
75553;BME280;64136;53.118;17.996;2023-03-16T05:46:19;101347.89;;;-0.97;83.03
75553;BME280;64136;53.118;17.996;2023-03-16T05:48:46;101350.83;;;-0.94;82.87
75553;BME280;64136;53.118;17.996;2023-03-16T05:53:39;101361.41;;;-0.86;82.69
75553;BME280;64136;53.118;17.996;2023-03-16T05:56:11;101361.03;;;-0.82;82.51
75553;BME280;64136;53.118;17.996;2023-03-16T05:58:40;101357.05;;;-0.83;82.55
75553;BME280;64136;53.118;17.996;2023-03-16T06:01:11;101356.86;;;-0.82;82.60
75553;BME280;64136;53.118;17.996;2023-03-16T06:03:39;101360.48;;;-0.77;82.34
75553;BME280;64136;53.118;17.996;2023-03-16T06:06:08;101360.09;;;-0.72;82.46
75553;BME280;64136;53.118;17.996;2023-03-16T06:08:40;101364.07;;;-0.70;82.39
75553;BME280;64136;53.118;17.996;2023-03-16T06:11:09;101364.77;;;-0.68;82.37
75553;BME280;64136;53.118;17.996;2023-03-16T06:13:37;101367.70;;;-0.61;82.18
75553;BME280;64136;53.118;17.996;2023-03-16T06:16:03;101372.49;;;-0.53;82.04
75553;BME280;64136;53.118;17.996;2023-03-16T06:18:34;101372.97;;;-0.47;82.02
75553;BME280;64136;53.118;17.996;2023-03-16T06:21:00;101371.21;;;-0.42;81.79
75553;BME280;64136;53.118;17.996;2023-03-16T06:23:26;101369.09;;;-0.39;81.84
75553;BME280;64136;53.118;17.996;2023-03-16T06:25:54;101368.15;;;-0.30;81.55
75553;BME280;64136;53.118;17.996;2023-03-16T06:28:22;101371.75;;;-0.24;81.20
75553;BME280;64136;53.118;17.996;2023-03-16T06:30:52;101376.42;;;-0.19;81.35
75553;BME280;64136;53.118;17.996;2023-03-16T06:33:38;101380.92;;;-0.15;81.29
75553;BME280;64136;53.118;17.996;2023-03-16T06:36:05;101381.20;;;-0.09;81.24
75553;BME280;64136;53.118;17.996;2023-03-16T06:38:35;101385.15;;;0.00;81.16
75553;BME280;64136;53.118;17.996;2023-03-16T06:41:05;101384.92;;;0.06;80.94
75553;BME280;64136;53.118;17.996;2023-03-16T06:43:32;101384.02;;;0.10;80.85
75553;BME280;64136;53.118;17.996;2023-03-16T06:45:58;101387.10;;;0.13;81.02
75553;BME280;64136;53.118;17.996;2023-03-16T06:48:24;101388.04;;;0.25;80.47
75553;BME280;64136;53.118;17.996;2023-03-16T06:50:50;101388.98;;;0.36;80.30
75553;BME280;64136;53.118;17.996;2023-03-16T06:53:21;101391.48;;;0.48;79.94
75553;BME280;64136;53.118;17.996;2023-03-16T06:55:48;101388.69;;;0.63;79.66
75553;BME280;64136;53.118;17.996;2023-03-16T06:58:14;101389.99;;;0.85;78.87
75553;BME280;64136;53.118;17.996;2023-03-16T07:00:40;101397.39;;;1.08;78.16
75553;BME280;64136;53.118;17.996;2023-03-16T07:03:07;101393.19;;;1.22;77.20
75553;BME280;64136;53.118;17.996;2023-03-16T07:05:33;101400.45;;;1.40;76.56
75553;BME280;64136;53.118;17.996;2023-03-16T07:07:59;101401.09;;;1.67;76.17
75553;BME280;64136;53.118;17.996;2023-03-16T07:10:27;101407.02;;;1.79;75.37
75553;BME280;64136;53.118;17.996;2023-03-16T07:12:53;101409.22;;;1.83;74.89
75553;BME280;64136;53.118;17.996;2023-03-16T07:15:21;101408.84;;;1.96;74.61
75553;BME280;64136;53.118;17.996;2023-03-16T07:17:51;101409.73;;;2.06;73.87
75553;BME280;64136;53.118;17.996;2023-03-16T07:20:34;101413.64;;;2.23;73.49
75553;BME280;64136;53.118;17.996;2023-03-16T07:25:33;101410.27;;;2.54;71.98
75553;BME280;64136;53.118;17.996;2023-03-16T07:28:00;101411.76;;;2.59;72.02
75553;BME280;64136;53.118;17.996;2023-03-16T07:30:31;101413.41;;;2.73;72.34
75553;BME280;64136;53.118;17.996;2023-03-16T07:32:59;101413.73;;;2.91;72.22
75553;BME280;64136;53.118;17.996;2023-03-16T07:35:26;101411.71;;;2.88;70.71
75553;BME280;64136;53.118;17.996;2023-03-16T07:37:53;101413.52;;;2.93;70.54
75553;BME280;64136;53.118;17.996;2023-03-16T07:40:21;101416.17;;;3.01;70.10
75553;BME280;64136;53.118;17.996;2023-03-16T07:42:48;101418.85;;;3.07;69.62
75553;BME280;64136;53.118;17.996;2023-03-16T07:45:25;101414.59;;;3.10;69.43
75553;BME280;64136;53.118;17.996;2023-03-16T07:47:51;101413.25;;;3.07;69.26
75553;BME280;64136;53.118;17.996;2023-03-16T07:50:26;101415.19;;;2.98;69.43
75553;BME280;64136;53.118;17.996;2023-03-16T07:52:58;101418.73;;;3.04;69.33
75553;BME280;64136;53.118;17.996;2023-03-16T07:55:31;101419.41;;;3.13;69.26
75553;BME280;64136;53.118;17.996;2023-03-16T07:57:58;101415.34;;;3.24;69.35
75553;BME280;64136;53.118;17.996;2023-03-16T08:00:33;101414.23;;;3.26;68.46
75553;BME280;64136;53.118;17.996;2023-03-16T08:03:08;101416.67;;;3.27;68.40
75553;BME280;64136;53.118;17.996;2023-03-16T08:05:36;101417.04;;;3.43;68.33
75553;BME280;64136;53.118;17.996;2023-03-16T08:10:39;101414.39;;;3.59;68.17
75553;BME280;64136;53.118;17.996;2023-03-16T08:13:10;101415.43;;;3.67;67.78
75553;BME280;64136;53.118;17.996;2023-03-16T08:15:40;101420.79;;;3.63;67.40
75553;BME280;64136;53.118;17.996;2023-03-16T08:18:13;101422.19;;;3.47;67.68
75553;BME280;64136;53.118;17.996;2023-03-16T08:20:41;101424.16;;;3.37;67.99
75553;BME280;64136;53.118;17.996;2023-03-16T08:23:13;101428.25;;;3.34;67.71
75553;BME280;64136;53.118;17.996;2023-03-16T08:25:56;101427.93;;;3.32;67.44
75553;BME280;64136;53.118;17.996;2023-03-16T08:28:38;101428.52;;;3.47;66.44
75553;BME280;64136;53.118;17.996;2023-03-16T08:31:32;101426.54;;;3.56;65.64
75553;BME280;64136;53.118;17.996;2023-03-16T08:34:15;101427.38;;;3.80;65.13
75553;BME280;64136;53.118;17.996;2023-03-16T08:36:45;101427.86;;;3.98;64.48
75553;BME280;64136;53.118;17.996;2023-03-16T09:12:25;101460.29;;;4.26;62.43
75553;BME280;64136;53.118;17.996;2023-03-16T09:15:18;101465.99;;;4.43;62.17
75553;BME280;64136;53.118;17.996;2023-03-16T09:18:11;101471.87;;;4.66;61.83
75553;BME280;64136;53.118;17.996;2023-03-16T09:20:43;101478.80;;;4.50;61.68
75553;BME280;64136;53.118;17.996;2023-03-16T09:23:12;101470.08;;;4.41;61.93
75553;BME280;64136;53.118;17.996;2023-03-16T09:25:40;101473.16;;;4.58;62.02
75553;BME280;64136;53.118;17.996;2023-03-16T09:28:08;101474.91;;;4.50;62.02
75553;BME280;64136;53.118;17.996;2023-03-16T09:30:35;101477.05;;;4.63;61.64
75553;BME280;64136;53.118;17.996;2023-03-16T09:33:02;101479.55;;;4.88;61.60
75553;BME280;64136;53.118;17.996;2023-03-16T09:36:28;101473.83;;;5.17;60.89
75553;BME280;64136;53.118;17.996;2023-03-16T09:39:03;101478.80;;;5.02;60.47
75553;BME280;64136;53.118;17.996;2023-03-16T09:41:35;101476.31;;;4.97;60.39
75553;BME280;64136;53.118;17.996;2023-03-16T09:44:22;101482.20;;;5.06;60.40
75553;BME280;64136;53.118;17.996;2023-03-16T10:30:05;101526.85;;;5.17;60.50
75553;BME280;64136;53.118;17.996;2023-03-16T11:11:56;101542.96;;;5.81;59.33
75553;BME280;64136;53.118;17.996;2023-03-16T11:14:35;101544.35;;;5.80;59.22
75553;BME280;64136;53.118;17.996;2023-03-16T11:26:26;101542.64;;;5.85;58.88
75553;BME280;64136;53.118;17.996;2023-03-16T11:32:28;101549.15;;;5.67;59.87
75553;BME280;64136;53.118;17.996;2023-03-16T11:35:14;101558.46;;;5.61;59.80
75553;BME280;64136;53.118;17.996;2023-03-16T11:43:44;101559.31;;;5.56;60.77
75553;BME280;64136;53.118;17.996;2023-03-16T11:46:39;101560.22;;;5.67;61.14
75553;BME280;64136;53.118;17.996;2023-03-16T11:55:26;101570.53;;;5.57;62.99
75553;BME280;64136;53.118;17.996;2023-03-16T11:58:10;101574.09;;;5.31;65.33
75553;BME280;64136;53.118;17.996;2023-03-16T12:01:10;101582.77;;;5.14;66.99
75553;BME280;64136;53.118;17.996;2023-03-16T12:03:57;101581.77;;;4.99;68.84
75553;BME280;64136;53.118;17.996;2023-03-16T12:06:46;101580.15;;;4.73;71.36
75553;BME280;64136;53.118;17.996;2023-03-16T12:09:35;101569.08;;;4.87;71.71
75553;BME280;64136;53.118;17.996;2023-03-16T12:12:24;101565.45;;;5.05;70.93
75553;BME280;64136;53.118;17.996;2023-03-16T12:17:56;101559.29;;;5.81;67.63
75553;BME280;64136;53.118;17.996;2023-03-16T12:20:30;101561.26;;;6.15;67.72
75553;BME280;64136;53.118;17.996;2023-03-16T12:23:07;101562.19;;;6.20;67.10
75553;BME280;64136;53.118;17.996;2023-03-16T12:25:39;101571.41;;;6.05;66.87
75553;BME280;64136;53.118;17.996;2023-03-16T12:28:16;101569.35;;;6.04;65.93
75553;BME280;64136;53.118;17.996;2023-03-16T12:30:59;101565.57;;;5.89;65.48
75553;BME280;64136;53.118;17.996;2023-03-16T12:33:54;101563.98;;;5.77;65.42
75553;BME280;64136;53.118;17.996;2023-03-16T12:36:41;101567.03;;;5.87;65.19
75553;BME280;64136;53.118;17.996;2023-03-16T12:44:45;101576.64;;;6.07;63.35
75553;BME280;64136;53.118;17.996;2023-03-16T12:47:55;101579.32;;;6.18;62.89
75553;BME280;64136;53.118;17.996;2023-03-16T12:52:53;101575.58;;;6.13;61.28
75553;BME280;64136;53.118;17.996;2023-03-16T12:58:05;101580.71;;;5.75;60.97
75553;BME280;64136;53.118;17.996;2023-03-16T13:00:36;101583.19;;;5.88;61.19
75553;BME280;64136;53.118;17.996;2023-03-16T13:03:13;101578.40;;;5.82;60.44
75553;BME280;64136;53.118;17.996;2023-03-16T13:05:49;101587.27;;;5.74;60.13
75553;BME280;64136;53.118;17.996;2023-03-16T13:08:18;101587.27;;;5.68;59.92
75553;BME280;64136;53.118;17.996;2023-03-16T13:11:08;101588.36;;;5.85;60.13
75553;BME280;64136;53.118;17.996;2023-03-16T13:13:50;101588.27;;;5.76;59.01
75553;BME280;64136;53.118;17.996;2023-03-16T13:16:27;101596.97;;;5.97;58.76
75553;BME280;64136;53.118;17.996;2023-03-16T13:18:54;101593.16;;;6.13;58.15
75553;BME280;64136;53.118;17.996;2023-03-16T13:24:24;101602.55;;;5.99;57.15
75553;BME280;64136;53.118;17.996;2023-03-16T13:27:01;101599.73;;;5.87;56.48
75553;BME280;64136;53.118;17.996;2023-03-16T13:29:30;101598.35;;;5.92;56.26
75553;BME280;64136;53.118;17.996;2023-03-16T13:32:00;101605.84;;;5.95;56.37
75553;BME280;64136;53.118;17.996;2023-03-16T13:34:30;101608.34;;;6.00;56.34
75553;BME280;64136;53.118;17.996;2023-03-16T13:36:58;101607.91;;;6.03;56.33
75553;BME280;64136;53.118;17.996;2023-03-16T13:39:29;101608.20;;;6.04;56.71
75553;BME280;64136;53.118;17.996;2023-03-16T13:42:17;101614.73;;;6.04;56.92
75553;BME280;64136;53.118;17.996;2023-03-16T13:44:54;101615.16;;;5.95;57.16
75553;BME280;64136;53.118;17.996;2023-03-16T13:47:26;101616.49;;;5.92;57.17
75553;BME280;64136;53.118;17.996;2023-03-16T13:49:57;101614.26;;;6.20;56.75
75553;BME280;64136;53.118;17.996;2023-03-16T13:52:31;101616.05;;;6.35;57.05
75553;BME280;64136;53.118;17.996;2023-03-16T13:55:06;101618.21;;;6.39;56.72
75553;BME280;64136;53.118;17.996;2023-03-16T13:57:41;101616.39;;;6.18;56.67
75553;BME280;64136;53.118;17.996;2023-03-16T14:00:19;101617.66;;;6.18;56.44
75553;BME280;64136;53.118;17.996;2023-03-16T14:02:54;101618.74;;;6.34;56.09
75553;BME280;64136;53.118;17.996;2023-03-16T14:05:24;101615.33;;;6.59;56.29
75553;BME280;64136;53.118;17.996;2023-03-16T14:07:53;101615.55;;;6.68;56.01
75553;BME280;64136;53.118;17.996;2023-03-16T14:10:21;101612.22;;;7.04;54.93
75553;BME280;64136;53.118;17.996;2023-03-16T14:12:54;101616.34;;;7.87;53.24
75553;BME280;64136;53.118;17.996;2023-03-16T14:15:21;101609.21;;;8.20;52.04
75553;BME280;64136;53.118;17.996;2023-03-16T14:17:51;101604.73;;;9.22;48.82
75553;BME280;64136;53.118;17.996;2023-03-16T14:20:22;101612.30;;;9.03;48.86
75553;BME280;64136;53.118;17.996;2023-03-16T14:22:51;101610.86;;;8.86;48.56
75553;BME280;64136;53.118;17.996;2023-03-16T14:25:21;101607.92;;;9.18;47.29
75553;BME280;64136;53.118;17.996;2023-03-16T14:27:57;101608.70;;;10.15;48.34
75553;BME280;64136;53.118;17.996;2023-03-16T14:30:25;101609.65;;;9.75;46.53
75553;BME280;64136;53.118;17.996;2023-03-16T14:33:00;101610.95;;;9.22;47.51
75553;BME280;64136;53.118;17.996;2023-03-16T14:35:37;101611.32;;;8.88;48.12
75553;BME280;64136;53.118;17.996;2023-03-16T14:38:19;101610.94;;;8.23;48.06
75553;BME280;64136;53.118;17.996;2023-03-16T14:40:54;101608.52;;;8.68;46.98
75553;BME280;64136;53.118;17.996;2023-03-16T14:43:28;101606.60;;;9.04;46.04
75553;BME280;64136;53.118;17.996;2023-03-16T14:45:56;101603.00;;;9.30;45.18
75553;BME280;64136;53.118;17.996;2023-03-16T14:48:22;101606.95;;;8.52;45.89
75553;BME280;64136;53.118;17.996;2023-03-16T14:50:53;101611.70;;;7.84;46.40
75553;BME280;64136;53.118;17.996;2023-03-16T14:53:20;101611.94;;;7.63;47.23
75553;BME280;64136;53.118;17.996;2023-03-16T14:55:46;101610.40;;;7.42;47.91
75553;BME280;64136;53.118;17.996;2023-03-16T14:58:12;101607.70;;;7.18;48.75
75553;BME280;64136;53.118;17.996;2023-03-16T15:00:38;101609.91;;;7.50;48.61
75553;BME280;64136;53.118;17.996;2023-03-16T15:03:08;101609.02;;;7.84;47.97
75553;BME280;64136;53.118;17.996;2023-03-16T15:05:38;101608.42;;;7.63;48.10
75553;BME280;64136;53.118;17.996;2023-03-16T15:08:10;101602.77;;;7.53;48.22
75553;BME280;64136;53.118;17.996;2023-03-16T15:10:37;101595.15;;;7.29;47.96
75553;BME280;64136;53.118;17.996;2023-03-16T15:13:15;101603.09;;;7.24;48.46
75553;BME280;64136;53.118;17.996;2023-03-16T15:16:00;101606.59;;;7.05;47.18
75553;BME280;64136;53.118;17.996;2023-03-16T15:18:29;101605.53;;;6.99;46.75
75553;BME280;64136;53.118;17.996;2023-03-16T15:20:54;101604.61;;;6.90;47.15
75553;BME280;64136;53.118;17.996;2023-03-16T15:23:21;101607.26;;;6.85;47.82
75553;BME280;64136;53.118;17.996;2023-03-16T15:25:47;101611.95;;;6.76;47.90
75553;BME280;64136;53.118;17.996;2023-03-16T15:28:19;101613.36;;;6.65;48.38
75553;BME280;64136;53.118;17.996;2023-03-16T15:30:48;101612.42;;;6.66;48.56
75553;BME280;64136;53.118;17.996;2023-03-16T15:33:15;101612.95;;;6.67;48.62
75553;BME280;64136;53.118;17.996;2023-03-16T15:35:42;101611.94;;;6.60;48.51
75553;BME280;64136;53.118;17.996;2023-03-16T15:38:19;101612.73;;;6.52;48.28
75553;BME280;64136;53.118;17.996;2023-03-16T15:40:47;101616.12;;;6.50;48.37
75553;BME280;64136;53.118;17.996;2023-03-16T15:43:18;101612.81;;;6.44;48.10
75553;BME280;64136;53.118;17.996;2023-03-16T15:45:45;101613.71;;;6.43;48.60
75553;BME280;64136;53.118;17.996;2023-03-16T15:50:40;101607.61;;;6.47;48.85
75553;BME280;64136;53.118;17.996;2023-03-16T15:55:57;101608.14;;;6.24;48.66
75553;BME280;64136;53.118;17.996;2023-03-16T16:00:53;101615.78;;;6.04;47.27
75553;BME280;64136;53.118;17.996;2023-03-16T16:03:20;101615.64;;;5.97;46.82
75553;BME280;64136;53.118;17.996;2023-03-16T16:05:47;101625.09;;;6.04;46.80
75553;BME280;64136;53.118;17.996;2023-03-16T16:08:13;101627.91;;;6.09;47.50